sensor_id;sensor_type;location;lat;lon;timestamp;P1;durP1;ratioP1;P2;durP2;ratioP2
64313;SDS011;50650;48.180;11.524;2022-12-18T00:00:44;33.55;;;14.70;;
64313;SDS011;50650;48.180;11.524;2022-12-18T00:03:11;34.53;;;15.60;;
64313;SDS011;50650;48.180;11.524;2022-12-18T00:05:46;37.33;;;14.80;;
64313;SDS011;50650;48.180;11.524;2022-12-18T00:08:13;40.65;;;15.90;;
64313;SDS011;50650;48.180;11.524;2022-12-18T00:10:40;38.83;;;15.70;;
64313;SDS011;50650;48.180;11.524;2022-12-18T00:13:07;37.50;;;15.88;;
64313;SDS011;50650;48.180;11.524;2022-12-18T00:15:33;37.75;;;14.77;;
64313;SDS011;50650;48.180;11.524;2022-12-18T00:18:00;39.13;;;15.18;;
64313;SDS011;50650;48.180;11.524;2022-12-18T00:20:27;37.78;;;15.65;;
64313;SDS011;50650;48.180;11.524;2022-12-18T00:22:55;40.70;;;16.48;;
64313;SDS011;50650;48.180;11.524;2022-12-18T00:25:21;37.33;;;15.63;;
64313;SDS011;50650;48.180;11.524;2022-12-18T00:27:48;33.50;;;14.43;;
64313;SDS011;50650;48.180;11.524;2022-12-18T00:30:15;33.10;;;14.23;;
64313;SDS011;50650;48.180;11.524;2022-12-18T00:32:41;38.30;;;15.15;;
64313;SDS011;50650;48.180;11.524;2022-12-18T00:35:08;28.23;;;12.90;;
64313;SDS011;50650;48.180;11.524;2022-12-18T00:37:34;36.72;;;15.85;;
64313;SDS011;50650;48.180;11.524;2022-12-18T00:40:03;38.72;;;14.82;;
64313;SDS011;50650;48.180;11.524;2022-12-18T00:42:30;42.60;;;14.32;;
64313;SDS011;50650;48.180;11.524;2022-12-18T00:45:14;40.70;;;15.88;;
64313;SDS011;50650;48.180;11.524;2022-12-18T00:47:40;40.15;;;16.52;;
64313;SDS011;50650;48.180;11.524;2022-12-18T00:50:07;39.08;;;15.30;;
64313;SDS011;50650;48.180;11.524;2022-12-18T00:52:35;42.75;;;15.40;;
64313;SDS011;50650;48.180;11.524;2022-12-18T00:55:03;38.75;;;14.98;;
64313;SDS011;50650;48.180;11.524;2022-12-18T00:57:30;34.83;;;14.35;;
64313;SDS011;50650;48.180;11.524;2022-12-18T00:59:56;39.78;;;15.85;;
64313;SDS011;50650;48.180;11.524;2022-12-18T01:02:23;34.33;;;14.25;;
64313;SDS011;50650;48.180;11.524;2022-12-18T01:04:49;44.70;;;15.43;;
64313;SDS011;50650;48.180;11.524;2022-12-18T01:07:16;41.33;;;14.50;;
64313;SDS011;50650;48.180;11.524;2022-12-18T01:09:42;34.75;;;14.30;;
64313;SDS011;50650;48.180;11.524;2022-12-18T01:12:10;34.92;;;13.50;;
64313;SDS011;50650;48.180;11.524;2022-12-18T01:14:37;35.00;;;13.13;;
64313;SDS011;50650;48.180;11.524;2022-12-18T01:17:03;38.45;;;15.35;;
64313;SDS011;50650;48.180;11.524;2022-12-18T01:19:30;37.53;;;13.32;;
64313;SDS011;50650;48.180;11.524;2022-12-18T01:21:57;32.00;;;13.57;;
64313;SDS011;50650;48.180;11.524;2022-12-18T01:24:23;36.80;;;13.57;;
64313;SDS011;50650;48.180;11.524;2022-12-18T01:26:50;35.33;;;13.88;;
64313;SDS011;50650;48.180;11.524;2022-12-18T01:29:18;28.85;;;12.85;;
64313;SDS011;50650;48.180;11.524;2022-12-18T01:31:44;33.70;;;13.65;;
64313;SDS011;50650;48.180;11.524;2022-12-18T01:34:11;36.92;;;12.48;;
64313;SDS011;50650;48.180;11.524;2022-12-18T01:36:37;39.95;;;14.43;;
64313;SDS011;50650;48.180;11.524;2022-12-18T01:39:06;37.53;;;14.57;;
64313;SDS011;50650;48.180;11.524;2022-12-18T01:41:34;31.50;;;14.48;;
64313;SDS011;50650;48.180;11.524;2022-12-18T01:47:30;30.70;;;13.25;;
64313;SDS011;50650;48.180;11.524;2022-12-18T01:49:59;29.90;;;14.15;;
64313;SDS011;50650;48.180;11.524;2022-12-18T01:52:28;38.13;;;15.40;;
64313;SDS011;50650;48.180;11.524;2022-12-18T01:54:55;34.80;;;13.30;;
64313;SDS011;50650;48.180;11.524;2022-12-18T01:57:23;46.38;;;14.73;;
64313;SDS011;50650;48.180;11.524;2022-12-18T01:59:51;36.42;;;14.02;;
64313;SDS011;50650;48.180;11.524;2022-12-18T02:02:19;34.72;;;14.18;;
64313;SDS011;50650;48.180;11.524;2022-12-18T02:04:47;38.40;;;16.98;;
64313;SDS011;50650;48.180;11.524;2022-12-18T02:07:14;37.75;;;15.75;;
64313;SDS011;50650;48.180;11.524;2022-12-18T02:09:45;41.90;;;15.90;;
64313;SDS011;50650;48.180;11.524;2022-12-18T02:12:13;42.85;;;15.95;;
64313;SDS011;50650;48.180;11.524;2022-12-18T02:14:43;39.70;;;15.88;;
64313;SDS011;50650;48.180;11.524;2022-12-18T02:17:13;37.80;;;13.98;;
64313;SDS011;50650;48.180;11.524;2022-12-18T02:19:52;39.22;;;16.25;;
64313;SDS011;50650;48.180;11.524;2022-12-18T02:22:26;36.83;;;14.85;;
64313;SDS011;50650;48.180;11.524;2022-12-18T02:24:59;46.67;;;16.65;;
64313;SDS011;50650;48.180;11.524;2022-12-18T02:27:39;40.67;;;14.85;;
64313;SDS011;50650;48.180;11.524;2022-12-18T02:30:06;43.35;;;15.60;;
64313;SDS011;50650;48.180;11.524;2022-12-18T02:32:34;39.97;;;15.27;;
64313;SDS011;50650;48.180;11.524;2022-12-18T02:35:04;34.13;;;17.00;;
64313;SDS011;50650;48.180;11.524;2022-12-18T02:37:32;35.90;;;14.57;;
64313;SDS011;50650;48.180;11.524;2022-12-18T02:40:00;40.33;;;17.38;;
64313;SDS011;50650;48.180;11.524;2022-12-18T02:42:27;59.03;;;16.55;;
64313;SDS011;50650;48.180;11.524;2022-12-18T02:44:55;41.65;;;16.23;;
64313;SDS011;50650;48.180;11.524;2022-12-18T02:47:22;39.30;;;15.75;;
64313;SDS011;50650;48.180;11.524;2022-12-18T02:49:53;41.70;;;17.50;;
64313;SDS011;50650;48.180;11.524;2022-12-18T02:52:25;46.28;;;16.73;;
64313;SDS011;50650;48.180;11.524;2022-12-18T02:55:00;29.42;;;12.25;;
64313;SDS011;50650;48.180;11.524;2022-12-18T02:57:34;37.95;;;15.75;;
64313;SDS011;50650;48.180;11.524;2022-12-18T03:00:06;46.90;;;16.35;;
64313;SDS011;50650;48.180;11.524;2022-12-18T03:02:36;44.92;;;18.00;;
64313;SDS011;50650;48.180;11.524;2022-12-18T03:05:07;36.42;;;14.25;;
64313;SDS011;50650;48.180;11.524;2022-12-18T03:07:37;44.85;;;16.98;;
64313;SDS011;50650;48.180;11.524;2022-12-18T03:10:06;41.40;;;16.67;;
64313;SDS011;50650;48.180;11.524;2022-12-18T03:12:35;36.47;;;16.35;;
64313;SDS011;50650;48.180;11.524;2022-12-18T03:15:08;38.08;;;14.68;;
64313;SDS011;50650;48.180;11.524;2022-12-18T03:17:36;33.85;;;14.52;;
64313;SDS011;50650;48.180;11.524;2022-12-18T03:20:06;40.47;;;16.27;;
64313;SDS011;50650;48.180;11.524;2022-12-18T03:22:36;42.22;;;15.68;;
64313;SDS011;50650;48.180;11.524;2022-12-18T03:25:05;39.30;;;16.85;;
64313;SDS011;50650;48.180;11.524;2022-12-18T03:27:34;44.95;;;17.38;;
64313;SDS011;50650;48.180;11.524;2022-12-18T03:30:03;45.05;;;16.52;;
64313;SDS011;50650;48.180;11.524;2022-12-18T03:32:36;39.42;;;15.70;;
64313;SDS011;50650;48.180;11.524;2022-12-18T03:35:06;41.33;;;17.83;;
64313;SDS011;50650;48.180;11.524;2022-12-18T03:37:34;40.60;;;15.82;;
64313;SDS011;50650;48.180;11.524;2022-12-18T03:40:01;45.60;;;16.30;;
64313;SDS011;50650;48.180;11.524;2022-12-18T03:42:28;43.58;;;16.85;;
64313;SDS011;50650;48.180;11.524;2022-12-18T03:44:57;34.00;;;15.07;;
64313;SDS011;50650;48.180;11.524;2022-12-18T03:47:31;38.13;;;16.45;;
64313;SDS011;50650;48.180;11.524;2022-12-18T03:50:03;40.80;;;16.10;;
64313;SDS011;50650;48.180;11.524;2022-12-18T03:52:35;38.13;;;15.32;;
64313;SDS011;50650;48.180;11.524;2022-12-18T03:55:04;42.47;;;17.30;;
64313;SDS011;50650;48.180;11.524;2022-12-18T03:57:31;37.17;;;16.15;;
64313;SDS011;50650;48.180;11.524;2022-12-18T03:59:59;37.50;;;15.88;;
64313;SDS011;50650;48.180;11.524;2022-12-18T04:02:27;33.92;;;14.30;;
64313;SDS011;50650;48.180;11.524;2022-12-18T04:04:57;38.40;;;15.05;;
64313;SDS011;50650;48.180;11.524;2022-12-18T04:07:26;40.15;;;16.13;;
64313;SDS011;50650;48.180;11.524;2022-12-18T04:09:55;36.85;;;14.80;;
64313;SDS011;50650;48.180;11.524;2022-12-18T04:12:23;35.05;;;15.00;;
64313;SDS011;50650;48.180;11.524;2022-12-18T04:14:50;34.80;;;15.48;;
64313;SDS011;50650;48.180;11.524;2022-12-18T04:17:16;41.25;;;15.07;;
64313;SDS011;50650;48.180;11.524;2022-12-18T04:19:45;37.08;;;15.45;;
64313;SDS011;50650;48.180;11.524;2022-12-18T04:22:11;42.90;;;16.92;;
64313;SDS011;50650;48.180;11.524;2022-12-18T04:24:38;37.72;;;14.95;;
64313;SDS011;50650;48.180;11.524;2022-12-18T04:27:04;39.67;;;15.25;;
64313;SDS011;50650;48.180;11.524;2022-12-18T04:29:31;33.28;;;15.20;;
64313;SDS011;50650;48.180;11.524;2022-12-18T04:31:58;33.75;;;14.20;;
64313;SDS011;50650;48.180;11.524;2022-12-18T04:34:24;32.70;;;13.75;;
64313;SDS011;50650;48.180;11.524;2022-12-18T04:36:52;37.17;;;14.95;;
64313;SDS011;50650;48.180;11.524;2022-12-18T04:39:18;40.45;;;15.68;;
64313;SDS011;50650;48.180;11.524;2022-12-18T04:41:45;40.17;;;16.30;;
64313;SDS011;50650;48.180;11.524;2022-12-18T04:44:11;37.65;;;16.42;;
64313;SDS011;50650;48.180;11.524;2022-12-18T04:46:38;36.92;;;14.48;;
64313;SDS011;50650;48.180;11.524;2022-12-18T04:49:04;37.15;;;13.65;;
64313;SDS011;50650;48.180;11.524;2022-12-18T04:51:31;37.63;;;14.25;;
64313;SDS011;50650;48.180;11.524;2022-12-18T04:53:59;27.55;;;12.32;;
64313;SDS011;50650;48.180;11.524;2022-12-18T04:56:26;33.60;;;13.77;;
64313;SDS011;50650;48.180;11.524;2022-12-18T04:58:52;36.28;;;15.35;;
64313;SDS011;50650;48.180;11.524;2022-12-18T05:01:19;37.42;;;14.27;;
64313;SDS011;50650;48.180;11.524;2022-12-18T05:03:45;35.13;;;13.93;;
64313;SDS011;50650;48.180;11.524;2022-12-18T05:06:11;36.90;;;14.27;;
64313;SDS011;50650;48.180;11.524;2022-12-18T05:08:38;32.83;;;13.65;;
64313;SDS011;50650;48.180;11.524;2022-12-18T05:11:06;36.83;;;14.68;;
64313;SDS011;50650;48.180;11.524;2022-12-18T05:13:34;39.33;;;15.20;;
64313;SDS011;50650;48.180;11.524;2022-12-18T05:16:01;37.53;;;14.75;;
64313;SDS011;50650;48.180;11.524;2022-12-18T05:18:27;36.17;;;14.45;;
64313;SDS011;50650;48.180;11.524;2022-12-18T05:20:54;31.83;;;13.52;;
64313;SDS011;50650;48.180;11.524;2022-12-18T05:23:21;38.30;;;15.80;;
64313;SDS011;50650;48.180;11.524;2022-12-18T05:25:50;33.22;;;13.27;;
64313;SDS011;50650;48.180;11.524;2022-12-18T05:28:18;37.92;;;16.08;;
64313;SDS011;50650;48.180;11.524;2022-12-18T05:30:47;32.72;;;13.95;;
64313;SDS011;50650;48.180;11.524;2022-12-18T05:33:14;34.88;;;12.98;;
64313;SDS011;50650;48.180;11.524;2022-12-18T05:35:40;38.08;;;15.35;;
64313;SDS011;50650;48.180;11.524;2022-12-18T05:38:07;35.53;;;15.23;;
64313;SDS011;50650;48.180;11.524;2022-12-18T05:40:34;34.20;;;13.75;;
64313;SDS011;50650;48.180;11.524;2022-12-18T05:43:01;35.72;;;14.60;;
64313;SDS011;50650;48.180;11.524;2022-12-18T05:45:29;32.67;;;14.23;;
64313;SDS011;50650;48.180;11.524;2022-12-18T05:47:56;38.78;;;15.68;;
64313;SDS011;50650;48.180;11.524;2022-12-18T05:50:22;31.73;;;14.40;;
64313;SDS011;50650;48.180;11.524;2022-12-18T05:52:49;28.23;;;13.38;;
64313;SDS011;50650;48.180;11.524;2022-12-18T05:55:15;33.85;;;12.80;;
64313;SDS011;50650;48.180;11.524;2022-12-18T05:57:42;36.45;;;12.85;;
64313;SDS011;50650;48.180;11.524;2022-12-18T06:00:09;33.15;;;14.93;;
64313;SDS011;50650;48.180;11.524;2022-12-18T06:02:37;29.38;;;13.50;;
64313;SDS011;50650;48.180;11.524;2022-12-18T06:05:04;27.35;;;11.45;;
64313;SDS011;50650;48.180;11.524;2022-12-18T06:07:31;28.98;;;13.13;;
64313;SDS011;50650;48.180;11.524;2022-12-18T06:09:58;32.63;;;13.30;;
64313;SDS011;50650;48.180;11.524;2022-12-18T06:12:24;34.55;;;14.45;;
64313;SDS011;50650;48.180;11.524;2022-12-18T06:14:51;31.20;;;13.40;;
64313;SDS011;50650;48.180;11.524;2022-12-18T06:17:17;30.67;;;12.30;;
64313;SDS011;50650;48.180;11.524;2022-12-18T06:19:45;33.28;;;12.52;;
64313;SDS011;50650;48.180;11.524;2022-12-18T06:22:12;34.47;;;14.40;;
64313;SDS011;50650;48.180;11.524;2022-12-18T06:24:38;31.27;;;12.95;;
64313;SDS011;50650;48.180;11.524;2022-12-18T06:27:05;33.65;;;14.75;;
64313;SDS011;50650;48.180;11.524;2022-12-18T06:29:31;29.55;;;12.60;;
64313;SDS011;50650;48.180;11.524;2022-12-18T06:31:57;32.50;;;13.38;;
64313;SDS011;50650;48.180;11.524;2022-12-18T06:34:24;32.47;;;13.32;;
64313;SDS011;50650;48.180;11.524;2022-12-18T06:36:52;37.55;;;14.52;;
64313;SDS011;50650;48.180;11.524;2022-12-18T06:39:18;30.17;;;12.77;;
64313;SDS011;50650;48.180;11.524;2022-12-18T06:41:45;31.85;;;13.85;;
64313;SDS011;50650;48.180;11.524;2022-12-18T06:44:11;32.53;;;14.18;;
64313;SDS011;50650;48.180;11.524;2022-12-18T06:46:38;31.92;;;13.02;;
64313;SDS011;50650;48.180;11.524;2022-12-18T06:49:04;33.25;;;12.85;;
64313;SDS011;50650;48.180;11.524;2022-12-18T06:51:31;32.88;;;14.73;;
64313;SDS011;50650;48.180;11.524;2022-12-18T06:53:59;31.25;;;13.15;;
64313;SDS011;50650;48.180;11.524;2022-12-18T06:56:26;32.15;;;12.95;;
64313;SDS011;50650;48.180;11.524;2022-12-18T06:58:53;37.55;;;13.98;;
64313;SDS011;50650;48.180;11.524;2022-12-18T07:01:20;24.90;;;12.00;;
64313;SDS011;50650;48.180;11.524;2022-12-18T07:03:47;30.85;;;13.07;;
64313;SDS011;50650;48.180;11.524;2022-12-18T07:06:13;32.50;;;15.05;;
64313;SDS011;50650;48.180;11.524;2022-12-18T07:08:41;33.85;;;14.02;;
64313;SDS011;50650;48.180;11.524;2022-12-18T07:11:09;29.02;;;12.63;;
64313;SDS011;50650;48.180;11.524;2022-12-18T07:13:35;28.77;;;12.27;;
64313;SDS011;50650;48.180;11.524;2022-12-18T07:16:06;31.13;;;11.52;;
64313;SDS011;50650;48.180;11.524;2022-12-18T07:18:33;24.88;;;10.98;;
64313;SDS011;50650;48.180;11.524;2022-12-18T07:21:02;26.17;;;12.13;;
64313;SDS011;50650;48.180;11.524;2022-12-18T07:23:31;30.02;;;11.75;;
64313;SDS011;50650;48.180;11.524;2022-12-18T07:26:00;28.08;;;12.15;;
64313;SDS011;50650;48.180;11.524;2022-12-18T07:28:28;31.10;;;14.50;;
64313;SDS011;50650;48.180;11.524;2022-12-18T07:30:55;31.65;;;13.43;;
64313;SDS011;50650;48.180;11.524;2022-12-18T07:33:21;26.02;;;11.85;;
64313;SDS011;50650;48.180;11.524;2022-12-18T07:35:48;30.30;;;13.15;;
64313;SDS011;50650;48.180;11.524;2022-12-18T07:38:14;28.90;;;14.20;;
64313;SDS011;50650;48.180;11.524;2022-12-18T07:40:41;31.35;;;13.30;;
64313;SDS011;50650;48.180;11.524;2022-12-18T07:43:07;33.22;;;13.30;;
64313;SDS011;50650;48.180;11.524;2022-12-18T07:45:35;22.98;;;11.35;;
64313;SDS011;50650;48.180;11.524;2022-12-18T07:48:02;25.20;;;10.93;;
64313;SDS011;50650;48.180;11.524;2022-12-18T07:50:28;30.20;;;11.95;;
64313;SDS011;50650;48.180;11.524;2022-12-18T07:52:55;34.13;;;14.93;;
64313;SDS011;50650;48.180;11.524;2022-12-18T07:55:21;31.15;;;12.80;;
64313;SDS011;50650;48.180;11.524;2022-12-18T07:57:48;29.92;;;11.60;;
64313;SDS011;50650;48.180;11.524;2022-12-18T08:00:15;27.88;;;12.52;;
64313;SDS011;50650;48.180;11.524;2022-12-18T08:02:43;29.83;;;12.13;;
64313;SDS011;50650;48.180;11.524;2022-12-18T08:05:10;29.63;;;12.32;;
64313;SDS011;50650;48.180;11.524;2022-12-18T08:07:36;27.52;;;12.50;;
64313;SDS011;50650;48.180;11.524;2022-12-18T08:10:03;30.08;;;13.18;;
64313;SDS011;50650;48.180;11.524;2022-12-18T08:12:30;33.42;;;12.85;;
64313;SDS011;50650;48.180;11.524;2022-12-18T08:14:56;38.25;;;14.40;;
64313;SDS011;50650;48.180;11.524;2022-12-18T08:17:23;33.67;;;13.00;;
64313;SDS011;50650;48.180;11.524;2022-12-18T08:19:51;28.67;;;13.15;;
64313;SDS011;50650;48.180;11.524;2022-12-18T08:22:17;29.38;;;11.77;;
64313;SDS011;50650;48.180;11.524;2022-12-18T08:24:44;29.17;;;12.90;;
64313;SDS011;50650;48.180;11.524;2022-12-18T08:27:11;28.77;;;13.10;;
64313;SDS011;50650;48.180;11.524;2022-12-18T08:29:37;33.45;;;13.77;;
64313;SDS011;50650;48.180;11.524;2022-12-18T08:32:04;27.30;;;11.63;;
64313;SDS011;50650;48.180;11.524;2022-12-18T08:34:31;27.67;;;11.95;;
64313;SDS011;50650;48.180;11.524;2022-12-18T08:36:58;34.17;;;13.32;;
64313;SDS011;50650;48.180;11.524;2022-12-18T08:39:25;29.15;;;12.52;;
64313;SDS011;50650;48.180;11.524;2022-12-18T08:41:51;24.83;;;9.55;;
64313;SDS011;50650;48.180;11.524;2022-12-18T08:44:32;28.15;;;13.00;;
64313;SDS011;50650;48.180;11.524;2022-12-18T08:47:05;29.63;;;13.38;;
64313;SDS011;50650;48.180;11.524;2022-12-18T08:49:32;32.63;;;13.30;;
64313;SDS011;50650;48.180;11.524;2022-12-18T08:52:00;34.92;;;14.10;;
64313;SDS011;50650;48.180;11.524;2022-12-18T08:54:27;27.17;;;11.95;;
64313;SDS011;50650;48.180;11.524;2022-12-18T08:56:54;28.50;;;12.05;;
64313;SDS011;50650;48.180;11.524;2022-12-18T08:59:21;28.95;;;12.77;;
64313;SDS011;50650;48.180;11.524;2022-12-18T09:01:48;35.03;;;14.40;;
64313;SDS011;50650;48.180;11.524;2022-12-18T09:04:14;28.67;;;13.35;;
64313;SDS011;50650;48.180;11.524;2022-12-18T09:06:41;27.88;;;13.70;;
64313;SDS011;50650;48.180;11.524;2022-12-18T09:09:10;32.25;;;13.27;;
64313;SDS011;50650;48.180;11.524;2022-12-18T09:11:36;29.58;;;12.93;;
64313;SDS011;50650;48.180;11.524;2022-12-18T09:14:03;29.55;;;13.23;;
64313;SDS011;50650;48.180;11.524;2022-12-18T09:16:29;31.60;;;13.95;;
64313;SDS011;50650;48.180;11.524;2022-12-18T09:18:57;28.38;;;12.88;;
64313;SDS011;50650;48.180;11.524;2022-12-18T09:21:25;34.15;;;14.10;;
64313;SDS011;50650;48.180;11.524;2022-12-18T09:23:53;39.25;;;12.77;;
64313;SDS011;50650;48.180;11.524;2022-12-18T09:26:22;26.25;;;11.93;;
64313;SDS011;50650;48.180;11.524;2022-12-18T09:28:49;36.60;;;12.88;;
64313;SDS011;50650;48.180;11.524;2022-12-18T09:31:17;31.88;;;12.70;;
64313;SDS011;50650;48.180;11.524;2022-12-18T09:33:44;32.95;;;14.20;;
64313;SDS011;50650;48.180;11.524;2022-12-18T09:36:12;32.97;;;14.20;;
64313;SDS011;50650;48.180;11.524;2022-12-18T09:38:40;33.55;;;13.98;;
64313;SDS011;50650;48.180;11.524;2022-12-18T09:41:14;34.50;;;14.40;;
64313;SDS011;50650;48.180;11.524;2022-12-18T09:43:46;37.03;;;14.65;;
64313;SDS011;50650;48.180;11.524;2022-12-18T09:46:16;36.42;;;15.80;;
64313;SDS011;50650;48.180;11.524;2022-12-18T09:48:44;32.50;;;14.98;;
64313;SDS011;50650;48.180;11.524;2022-12-18T09:51:14;34.92;;;13.48;;
64313;SDS011;50650;48.180;11.524;2022-12-18T09:53:46;33.05;;;12.82;;
64313;SDS011;50650;48.180;11.524;2022-12-18T09:56:17;32.38;;;12.40;;
64313;SDS011;50650;48.180;11.524;2022-12-18T09:58:50;33.63;;;14.40;;
64313;SDS011;50650;48.180;11.524;2022-12-18T10:01:24;33.55;;;13.93;;
64313;SDS011;50650;48.180;11.524;2022-12-18T10:03:54;24.48;;;11.80;;
64313;SDS011;50650;48.180;11.524;2022-12-18T10:06:21;31.25;;;12.55;;
64313;SDS011;50650;48.180;11.524;2022-12-18T10:08:56;32.70;;;13.05;;
64313;SDS011;50650;48.180;11.524;2022-12-18T10:11:28;29.00;;;12.60;;
64313;SDS011;50650;48.180;11.524;2022-12-18T10:14:04;22.33;;;9.82;;
64313;SDS011;50650;48.180;11.524;2022-12-18T10:16:36;26.48;;;11.48;;
64313;SDS011;50650;48.180;11.524;2022-12-18T10:19:11;31.85;;;13.43;;
64313;SDS011;50650;48.180;11.524;2022-12-18T10:21:45;26.77;;;12.32;;
64313;SDS011;50650;48.180;11.524;2022-12-18T10:24:22;27.52;;;12.48;;
64313;SDS011;50650;48.180;11.524;2022-12-18T10:26:55;29.98;;;11.88;;
64313;SDS011;50650;48.180;11.524;2022-12-18T10:29:28;30.15;;;12.35;;
64313;SDS011;50650;48.180;11.524;2022-12-18T10:31:55;29.48;;;12.23;;
64313;SDS011;50650;48.180;11.524;2022-12-18T10:34:21;24.95;;;11.38;;
64313;SDS011;50650;48.180;11.524;2022-12-18T10:36:49;28.35;;;11.73;;
64313;SDS011;50650;48.180;11.524;2022-12-18T10:39:17;31.63;;;13.10;;
64313;SDS011;50650;48.180;11.524;2022-12-18T10:41:47;42.28;;;16.98;;
64313;SDS011;50650;48.180;11.524;2022-12-18T10:44:17;35.08;;;16.05;;
64313;SDS011;50650;48.180;11.524;2022-12-18T10:46:49;37.85;;;16.42;;
64313;SDS011;50650;48.180;11.524;2022-12-18T10:49:18;41.30;;;17.98;;
64313;SDS011;50650;48.180;11.524;2022-12-18T10:51:47;41.33;;;18.48;;
64313;SDS011;50650;48.180;11.524;2022-12-18T10:54:14;37.92;;;16.88;;
64313;SDS011;50650;48.180;11.524;2022-12-18T10:56:42;39.22;;;17.45;;
64313;SDS011;50650;48.180;11.524;2022-12-18T10:59:09;40.72;;;16.33;;
64313;SDS011;50650;48.180;11.524;2022-12-18T11:01:51;34.67;;;15.98;;
64313;SDS011;50650;48.180;11.524;2022-12-18T11:04:20;31.63;;;14.70;;
64313;SDS011;50650;48.180;11.524;2022-12-18T11:06:54;36.65;;;15.48;;
64313;SDS011;50650;48.180;11.524;2022-12-18T11:09:26;39.92;;;15.77;;
64313;SDS011;50650;48.180;11.524;2022-12-18T11:11:54;40.72;;;16.85;;
64313;SDS011;50650;48.180;11.524;2022-12-18T11:14:22;45.20;;;18.38;;
64313;SDS011;50650;48.180;11.524;2022-12-18T11:16:52;42.08;;;17.05;;
64313;SDS011;50650;48.180;11.524;2022-12-18T11:19:20;44.47;;;18.65;;
64313;SDS011;50650;48.180;11.524;2022-12-18T11:21:51;49.63;;;18.23;;
64313;SDS011;50650;48.180;11.524;2022-12-18T11:24:19;66.30;;;25.98;;
64313;SDS011;50650;48.180;11.524;2022-12-18T11:26:47;67.20;;;27.67;;
64313;SDS011;50650;48.180;11.524;2022-12-18T11:29:16;71.32;;;29.00;;
64313;SDS011;50650;48.180;11.524;2022-12-18T11:31:43;49.25;;;20.27;;
64313;SDS011;50650;48.180;11.524;2022-12-18T11:34:11;55.03;;;21.40;;
64313;SDS011;50650;48.180;11.524;2022-12-18T11:36:41;73.47;;;24.20;;
64313;SDS011;50650;48.180;11.524;2022-12-18T11:39:10;46.35;;;20.17;;
64313;SDS011;50650;48.180;11.524;2022-12-18T11:41:45;42.70;;;19.65;;
64313;SDS011;50650;48.180;11.524;2022-12-18T11:44:35;44.40;;;19.63;;
64313;SDS011;50650;48.180;11.524;2022-12-18T11:47:05;40.47;;;17.55;;
64313;SDS011;50650;48.180;11.524;2022-12-18T11:49:39;43.53;;;19.80;;
64313;SDS011;50650;48.180;11.524;2022-12-18T11:52:09;44.17;;;17.65;;
64313;SDS011;50650;48.180;11.524;2022-12-18T11:54:37;42.75;;;18.52;;
64313;SDS011;50650;48.180;11.524;2022-12-18T11:57:05;37.20;;;15.68;;
64313;SDS011;50650;48.180;11.524;2022-12-18T11:59:37;27.20;;;11.63;;
64313;SDS011;50650;48.180;11.524;2022-12-18T12:02:14;27.85;;;11.43;;
64313;SDS011;50650;48.180;11.524;2022-12-18T12:04:53;27.17;;;12.18;;
64313;SDS011;50650;48.180;11.524;2022-12-18T12:07:31;25.30;;;11.32;;
64313;SDS011;50650;48.180;11.524;2022-12-18T12:10:08;28.30;;;11.98;;
64313;SDS011;50650;48.180;11.524;2022-12-18T12:12:45;23.45;;;10.57;;
64313;SDS011;50650;48.180;11.524;2022-12-18T12:15:24;26.05;;;11.82;;
64313;SDS011;50650;48.180;11.524;2022-12-18T12:17:55;25.17;;;11.98;;
64313;SDS011;50650;48.180;11.524;2022-12-18T12:20:32;31.80;;;14.93;;
64313;SDS011;50650;48.180;11.524;2022-12-18T12:23:06;35.35;;;14.75;;
64313;SDS011;50650;48.180;11.524;2022-12-18T12:25:41;26.58;;;11.48;;
64313;SDS011;50650;48.180;11.524;2022-12-18T12:28:15;27.20;;;12.88;;
64313;SDS011;50650;48.180;11.524;2022-12-18T12:30:52;33.30;;;12.85;;
64313;SDS011;50650;48.180;11.524;2022-12-18T12:33:28;27.05;;;10.95;;
64313;SDS011;50650;48.180;11.524;2022-12-18T12:36:06;25.33;;;10.57;;
64313;SDS011;50650;48.180;11.524;2022-12-18T12:38:36;26.85;;;11.70;;
64313;SDS011;50650;48.180;11.524;2022-12-18T12:41:09;25.08;;;10.75;;
64313;SDS011;50650;48.180;11.524;2022-12-18T12:44:01;23.27;;;10.02;;
64313;SDS011;50650;48.180;11.524;2022-12-18T12:46:28;25.27;;;10.77;;
64313;SDS011;50650;48.180;11.524;2022-12-18T12:48:58;20.90;;;9.68;;
64313;SDS011;50650;48.180;11.524;2022-12-18T12:51:31;24.15;;;11.75;;
64313;SDS011;50650;48.180;11.524;2022-12-18T12:53:59;22.25;;;10.10;;
64313;SDS011;50650;48.180;11.524;2022-12-18T12:56:29;27.88;;;10.88;;
64313;SDS011;50650;48.180;11.524;2022-12-18T12:59:04;32.30;;;13.43;;
64313;SDS011;50650;48.180;11.524;2022-12-18T13:01:47;24.98;;;10.32;;
64313;SDS011;50650;48.180;11.524;2022-12-18T13:04:23;21.45;;;10.48;;
64313;SDS011;50650;48.180;11.524;2022-12-18T13:06:57;30.48;;;11.70;;
64313;SDS011;50650;48.180;11.524;2022-12-18T13:09:30;24.30;;;11.77;;
64313;SDS011;50650;48.180;11.524;2022-12-18T13:12:03;25.45;;;10.77;;
64313;SDS011;50650;48.180;11.524;2022-12-18T13:14:49;22.85;;;10.40;;
64313;SDS011;50650;48.180;11.524;2022-12-18T13:17:16;23.83;;;10.55;;
64313;SDS011;50650;48.180;11.524;2022-12-18T13:19:51;26.15;;;11.27;;
64313;SDS011;50650;48.180;11.524;2022-12-18T13:22:22;25.38;;;10.40;;
64313;SDS011;50650;48.180;11.524;2022-12-18T13:24:50;32.63;;;14.13;;
64313;SDS011;50650;48.180;11.524;2022-12-18T13:30:49;23.70;;;11.68;;
64313;SDS011;50650;48.180;11.524;2022-12-18T13:45:42;21.60;;;9.20;;
64313;SDS011;50650;48.180;11.524;2022-12-18T13:48:14;25.42;;;11.82;;
64313;SDS011;50650;48.180;11.524;2022-12-18T13:50:43;22.30;;;9.85;;
64313;SDS011;50650;48.180;11.524;2022-12-18T13:53:15;23.58;;;10.23;;
64313;SDS011;50650;48.180;11.524;2022-12-18T13:55:48;28.35;;;11.57;;
64313;SDS011;50650;48.180;11.524;2022-12-18T13:58:15;32.40;;;13.75;;
64313;SDS011;50650;48.180;11.524;2022-12-18T14:00:44;24.98;;;11.77;;
64313;SDS011;50650;48.180;11.524;2022-12-18T14:03:18;23.45;;;10.07;;
64313;SDS011;50650;48.180;11.524;2022-12-18T14:05:51;26.02;;;10.63;;
64313;SDS011;50650;48.180;11.524;2022-12-18T14:08:19;23.48;;;11.30;;
64313;SDS011;50650;48.180;11.524;2022-12-18T14:10:48;23.13;;;10.88;;
64313;SDS011;50650;48.180;11.524;2022-12-18T14:13:17;22.65;;;10.20;;
64313;SDS011;50650;48.180;11.524;2022-12-18T14:15:47;23.52;;;11.18;;
64313;SDS011;50650;48.180;11.524;2022-12-18T14:18:18;26.33;;;10.63;;
64313;SDS011;50650;48.180;11.524;2022-12-18T14:20:47;26.23;;;11.35;;
64313;SDS011;50650;48.180;11.524;2022-12-18T14:23:30;28.35;;;11.82;;
64313;SDS011;50650;48.180;11.524;2022-12-18T14:26:00;21.17;;;10.38;;
64313;SDS011;50650;48.180;11.524;2022-12-18T14:28:27;24.85;;;10.55;;
64313;SDS011;50650;48.180;11.524;2022-12-18T14:30:54;27.95;;;11.60;;
64313;SDS011;50650;48.180;11.524;2022-12-18T14:33:22;27.08;;;11.93;;
64313;SDS011;50650;48.180;11.524;2022-12-18T14:35:53;28.27;;;11.70;;
64313;SDS011;50650;48.180;11.524;2022-12-18T14:38:23;27.50;;;11.80;;